createdAt,value
2023-03-10T00:01:18.836Z,24.23
2023-03-10T00:03:45.733Z,25.97
2023-03-10T00:06:13.894Z,27.37
2023-03-10T00:08:40.950Z,26.30
2023-03-10T00:11:07.422Z,24.33
2023-03-10T00:13:33.904Z,24.37
2023-03-10T00:16:00.557Z,26.57
2023-03-10T00:18:27.205Z,25.30
2023-03-10T00:20:54.677Z,23.43
2023-03-10T00:23:21.751Z,24.53
2023-03-10T00:25:56.150Z,22.93
2023-03-10T00:28:23.652Z,24.97
2023-03-10T00:31:01.755Z,24.67
2023-03-10T00:33:30.931Z,21.57
2023-03-10T00:36:07.629Z,24.53
2023-03-10T00:38:35.049Z,22.53
2023-03-10T00:41:03.527Z,22.17
2023-03-10T00:43:30.610Z,20.67
2023-03-10T00:45:57.149Z,22.00
2023-03-10T00:48:24.005Z,22.60
2023-03-10T00:50:51.976Z,21.33
2023-03-10T00:53:18.811Z,24.07
2023-03-10T00:55:45.493Z,21.70
2023-03-10T00:58:12.092Z,20.23
2023-03-10T01:00:38.685Z,22.33
2023-03-10T01:03:05.190Z,21.33
2023-03-10T01:05:31.763Z,21.20
2023-03-10T01:07:58.307Z,19.97
2023-03-10T01:10:24.777Z,20.17
2023-03-10T01:12:51.306Z,19.97
2023-03-10T01:15:17.938Z,20.20
2023-03-10T01:17:44.418Z,19.70
2023-03-10T01:20:15.129Z,19.37
2023-03-10T01:22:41.716Z,17.37
2023-03-10T01:25:12.812Z,22.37
2023-03-10T01:27:39.312Z,17.73
2023-03-10T01:30:06.550Z,14.30
2023-03-10T01:32:33.117Z,19.00
2023-03-10T01:34:59.902Z,15.63
2023-03-10T01:37:26.383Z,16.83
2023-03-10T01:39:52.831Z,15.80
2023-03-10T01:42:19.319Z,17.43
2023-03-10T01:45:07.968Z,15.83
2023-03-10T01:47:34.469Z,12.97
2023-03-10T01:50:01.077Z,15.47
2023-03-10T01:52:29.854Z,13.67
2023-03-10T01:55:00.909Z,14.67
2023-03-10T01:57:30.228Z,13.00
2023-03-10T01:59:57.262Z,11.90
2023-03-10T02:02:24.910Z,13.60
2023-03-10T02:04:52.586Z,14.93
2023-03-10T02:07:22.178Z,13.60
2023-03-10T02:09:49.884Z,13.10
2023-03-10T02:12:16.930Z,13.23
2023-03-10T02:14:44.765Z,12.57
2023-03-10T02:17:17.212Z,12.10
2023-03-10T02:20:07.056Z,13.43
2023-03-10T02:22:33.544Z,15.77
2023-03-10T02:25:11.349Z,14.93
2023-03-10T02:27:38.744Z,12.73
2023-03-10T02:30:12.346Z,12.60
2023-03-10T02:32:42.707Z,13.57
2023-03-10T02:35:09.572Z,13.03
2023-03-10T02:37:36.515Z,14.10
2023-03-10T02:40:05.318Z,12.70
2023-03-10T02:42:34.802Z,12.57
2023-03-10T02:45:03.406Z,14.33
2023-03-10T02:47:29.908Z,14.03
2023-03-10T02:49:56.492Z,11.03
2023-03-10T02:52:34.924Z,11.07
2023-03-10T02:55:01.476Z,11.93
2023-03-10T02:57:27.950Z,10.97
2023-03-10T02:59:54.447Z,12.07
2023-03-10T03:02:21.034Z,11.70
2023-03-10T03:04:47.584Z,12.07
2023-03-10T03:07:14.058Z,11.10
2023-03-10T03:09:40.526Z,9.20
2023-03-10T03:12:07.358Z,8.27
2023-03-10T03:14:33.850Z,8.90
2023-03-10T03:17:00.522Z,9.67
2023-03-10T03:19:29.466Z,8.50
2023-03-10T03:21:56.355Z,9.10
2023-03-10T03:24:22.882Z,9.10
2023-03-10T03:26:49.403Z,7.37
2023-03-10T03:29:17.508Z,8.87
2023-03-10T03:31:44.153Z,10.17
2023-03-10T03:34:10.778Z,9.13
2023-03-10T03:36:38.073Z,8.40
2023-03-10T03:39:06.645Z,8.53
2023-03-10T03:41:33.901Z,7.57
2023-03-10T03:44:00.578Z,7.80
2023-03-10T03:46:27.226Z,7.60
2023-03-10T03:48:53.710Z,11.60
2023-03-10T03:51:20.167Z,8.00
2023-03-10T03:53:46.623Z,7.23
2023-03-10T03:56:13.102Z,7.97
2023-03-10T03:58:39.561Z,7.17
2023-03-10T04:01:06.032Z,7.13
2023-03-10T04:03:32.530Z,8.37
2023-03-10T04:05:59.136Z,7.27
2023-03-10T04:08:25.611Z,8.40
2023-03-10T04:10:53.672Z,8.13
2023-03-10T04:13:20.163Z,8.10
2023-03-10T04:15:46.782Z,8.37
2023-03-10T04:18:13.272Z,8.43
2023-03-10T04:20:39.715Z,7.90
2023-03-10T04:23:06.182Z,8.20
2023-03-10T04:25:33.161Z,8.03
2023-03-10T04:27:59.683Z,7.97
2023-03-10T04:30:29.388Z,8.83
2023-03-10T04:32:59.896Z,8.17
2023-03-10T04:35:26.888Z,9.67
2023-03-10T04:37:53.490Z,9.53
2023-03-10T04:40:20.251Z,10.23
2023-03-10T04:42:46.894Z,9.33
2023-03-10T04:45:14.079Z,9.23
2023-03-10T04:47:41.252Z,9.47
2023-03-10T04:50:08.288Z,10.03
2023-03-10T04:52:34.760Z,10.20
2023-03-10T04:55:01.332Z,10.73
2023-03-10T04:57:27.880Z,11.47
2023-03-10T04:59:54.460Z,12.20
2023-03-10T05:02:20.987Z,12.63
2023-03-10T05:04:47.558Z,13.27
2023-03-10T05:07:14.105Z,11.27
2023-03-10T05:09:40.658Z,12.20
2023-03-10T05:12:07.844Z,14.30
2023-03-10T05:14:34.418Z,10.40
2023-03-10T05:17:01.060Z,13.90
2023-03-10T05:19:28.853Z,13.73
2023-03-10T05:21:55.803Z,11.33
2023-03-10T05:24:22.309Z,11.23
2023-03-10T05:26:48.893Z,11.33
2023-03-10T05:29:15.345Z,13.43
2023-03-10T05:31:42.271Z,14.57
2023-03-10T05:34:08.819Z,14.63
2023-03-10T05:36:35.323Z,15.60
2023-03-10T05:39:02.191Z,15.37
2023-03-10T05:41:28.724Z,20.93
2023-03-10T05:43:55.890Z,19.27
2023-03-10T05:46:22.472Z,16.83
2023-03-10T05:48:49.069Z,18.20
2023-03-10T05:51:15.647Z,16.37
2023-03-10T05:53:42.671Z,16.83
2023-03-10T05:56:15.029Z,15.43
2023-03-10T05:58:42.068Z,17.60
2023-03-10T06:01:09.205Z,18.90
2023-03-10T06:03:36.610Z,19.60
2023-03-10T06:06:06.760Z,19.57
2023-03-10T06:08:33.533Z,18.63
2023-03-10T06:11:00.464Z,22.07
2023-03-10T06:13:27.278Z,22.03
2023-03-10T06:15:59.537Z,20.77
2023-03-10T06:18:27.103Z,20.67
2023-03-10T06:20:54.329Z,18.70
2023-03-10T06:23:22.077Z,20.83
2023-03-10T06:26:05.973Z,18.40
2023-03-10T06:28:33.782Z,18.33
2023-03-10T06:31:01.720Z,16.23
2023-03-10T06:33:29.242Z,17.80
2023-03-10T06:35:56.182Z,18.10
2023-03-10T06:38:22.888Z,18.20
2023-03-10T06:40:49.631Z,19.23
2023-03-10T06:43:16.554Z,16.93
2023-03-10T06:45:44.429Z,17.23
2023-03-10T06:48:11.281Z,17.43
2023-03-10T06:50:41.315Z,16.03
2023-03-10T06:53:07.992Z,15.03
2023-03-10T06:55:34.508Z,15.13
2023-03-10T06:58:01.151Z,18.73
2023-03-10T07:00:27.905Z,16.47
2023-03-10T07:02:54.360Z,14.97
2023-03-10T07:05:23.040Z,15.67
2023-03-10T07:07:52.918Z,18.50
2023-03-10T07:10:19.437Z,16.50
2023-03-10T07:12:48.838Z,17.73
2023-03-10T07:15:15.445Z,15.37
2023-03-10T07:17:41.931Z,17.23
2023-03-10T07:20:09.197Z,14.27
2023-03-10T07:22:35.671Z,14.50
2023-03-10T07:25:02.164Z,16.13
2023-03-10T07:27:28.678Z,16.33
2023-03-10T07:29:55.177Z,17.70
2023-03-10T07:32:21.662Z,20.07
2023-03-10T07:34:48.209Z,17.70
2023-03-10T07:37:14.656Z,16.70
2023-03-10T07:39:41.119Z,15.47
2023-03-10T07:42:07.755Z,19.50
2023-03-10T07:44:34.265Z,18.23
2023-03-10T07:47:00.810Z,18.70
2023-03-10T07:49:27.301Z,20.33
2023-03-10T07:51:53.828Z,18.73
2023-03-10T07:54:20.335Z,17.17
2023-03-10T07:56:47.232Z,16.50
2023-03-10T07:59:14.512Z,14.90
2023-03-10T08:01:41.345Z,18.37
2023-03-10T08:04:08.193Z,15.27
2023-03-10T08:06:35.767Z,15.27
2023-03-10T08:09:03.133Z,17.13
2023-03-10T08:11:29.616Z,16.50
2023-03-10T08:13:56.220Z,15.13
2023-03-10T08:16:23.362Z,13.83
2023-03-10T08:18:51.626Z,15.87
2023-03-10T08:21:18.093Z,15.83
2023-03-10T08:23:44.643Z,13.50
2023-03-10T08:26:14.315Z,13.00
2023-03-10T08:28:41.122Z,12.20
2023-03-10T08:31:09.634Z,11.23
2023-03-10T08:33:36.602Z,8.37
2023-03-10T08:36:30.063Z,8.03
2023-03-10T08:38:58.048Z,6.97
2023-03-10T08:41:34.979Z,6.73
2023-03-10T08:44:03.014Z,6.33
2023-03-10T08:46:31.745Z,5.80
2023-03-10T08:48:58.896Z,4.07
2023-03-10T08:51:25.886Z,3.83
2023-03-10T08:53:53.269Z,4.53
2023-03-10T08:56:21.321Z,3.55
2023-03-10T08:58:48.183Z,4.65
2023-03-10T09:01:16.440Z,3.80
2023-03-10T09:03:44.345Z,10.85
2023-03-10T09:06:11.028Z,12.40
2023-03-10T09:08:39.734Z,13.80
2023-03-10T09:11:06.291Z,11.77
2023-03-10T09:13:32.849Z,11.43
2023-03-10T09:15:59.457Z,12.80
2023-03-10T09:18:26.043Z,13.77
2023-03-10T09:20:52.600Z,14.23
2023-03-10T09:23:19.216Z,13.67
2023-03-10T09:25:45.771Z,13.63
2023-03-10T09:28:12.588Z,14.45
2023-03-10T09:30:40.645Z,13.97
2023-03-10T09:33:10.515Z,12.93
2023-03-10T09:35:41.698Z,12.53
2023-03-10T09:38:12.942Z,12.57
2023-03-10T09:40:43.148Z,11.80
2023-03-10T09:43:17.904Z,9.53
2023-03-10T09:45:53.990Z,10.07
2023-03-10T09:48:51.145Z,11.90
2023-03-10T09:51:23.160Z,8.10
2023-03-10T09:53:58.610Z,12.17
2023-03-10T09:56:33.907Z,9.98
2023-03-10T09:59:18.877Z,11.25
2023-03-10T10:01:47.947Z,10.17
2023-03-10T10:04:21.743Z,8.33
2023-03-10T10:06:49.018Z,9.32
2023-03-10T10:09:28.004Z,9.18
2023-03-10T10:11:54.698Z,11.57
2023-03-10T10:14:30.417Z,7.90
2023-03-10T10:17:41.698Z,7.43
2023-03-10T10:20:21.661Z,8.15
2023-03-10T10:22:48.404Z,6.35
2023-03-10T10:25:17.698Z,6.75
2023-03-10T10:27:45.612Z,6.50
2023-03-10T10:30:29.710Z,5.95
2023-03-10T10:33:01.550Z,8.10
2023-03-10T10:35:30.237Z,9.20
2023-03-10T10:38:19.209Z,7.43
2023-03-10T10:40:51.391Z,7.88
2023-03-10T10:43:19.609Z,7.80
2023-03-10T10:45:54.247Z,8.43
2023-03-10T10:48:47.658Z,6.80
2023-03-10T10:51:20.468Z,7.35
2023-03-10T10:53:46.950Z,7.70
2023-03-10T10:56:15.967Z,6.13
2023-03-10T10:59:04.075Z,5.35
2023-03-10T11:01:53.730Z,4.75
2023-03-10T11:04:21.684Z,4.45
2023-03-10T11:06:48.705Z,6.63
2023-03-10T11:09:20.967Z,3.83
2023-03-10T11:12:24.803Z,4.15
2023-03-10T11:15:02.386Z,3.58
2023-03-10T11:17:33.500Z,3.20
2023-03-10T11:20:41.138Z,2.33
2023-03-10T11:23:22.794Z,2.35
2023-03-10T11:25:54.412Z,5.05
2023-03-10T11:28:29.166Z,3.88
2023-03-10T11:31:05.189Z,4.40
2023-03-10T11:33:39.317Z,7.05
2023-03-10T11:36:29.149Z,8.32
2023-03-10T11:39:05.965Z,8.70
2023-03-10T11:41:37.625Z,9.38
2023-03-10T11:44:23.533Z,8.38
2023-03-10T11:47:12.085Z,9.05
2023-03-10T11:49:40.508Z,8.38
2023-03-10T11:52:12.072Z,9.77
2023-03-10T11:54:42.375Z,12.73
2023-03-10T11:57:22.777Z,10.95
2023-03-10T11:59:55.941Z,9.02
2023-03-10T12:03:03.790Z,8.40
2023-03-10T12:05:52.367Z,7.10
2023-03-10T12:08:21.232Z,5.75
2023-03-10T12:10:49.645Z,5.90
2023-03-10T12:13:23.603Z,4.85
2023-03-10T12:15:52.149Z,4.22
2023-03-10T12:18:18.918Z,4.18
2023-03-10T12:20:45.488Z,3.90
2023-03-10T12:23:27.070Z,4.72
2023-03-10T12:25:53.630Z,3.60
2023-03-10T12:28:24.745Z,4.97
2023-03-10T12:31:00.338Z,3.85
2023-03-10T12:33:42.440Z,2.70
2023-03-10T12:36:33.006Z,2.67
2023-03-10T12:39:24.505Z,2.80
2023-03-10T12:41:53.224Z,2.20
2023-03-10T12:44:22.604Z,5.00
2023-03-10T12:46:53.382Z,2.88
2023-03-10T12:49:43.602Z,3.13
2023-03-10T12:52:18.771Z,2.40
2023-03-10T12:54:55.948Z,2.47
2023-03-10T12:57:29.837Z,5.80
2023-03-10T13:00:06.340Z,15.10
2023-03-10T13:02:38.131Z,14.02
2023-03-10T13:05:07.840Z,2.63
2023-03-10T13:07:35.126Z,2.60
2023-03-10T13:10:03.533Z,2.97
2023-03-10T13:12:35.636Z,2.80
2023-03-10T13:15:08.166Z,2.60
2023-03-10T13:17:34.646Z,2.50
2023-03-10T13:20:12.752Z,3.17
2023-03-10T13:22:40.669Z,3.63
2023-03-10T13:25:13.918Z,3.13
2023-03-10T13:27:40.621Z,3.20
2023-03-10T13:30:20.326Z,2.65
2023-03-10T13:32:53.772Z,3.75
2023-03-10T13:35:30.190Z,2.28
2023-03-10T13:38:12.488Z,2.40
2023-03-10T13:41:02.809Z,2.30
2023-03-10T13:43:39.693Z,2.15
2023-03-10T13:46:14.875Z,2.17
2023-03-10T13:48:41.631Z,3.03
2023-03-10T13:51:16.219Z,2.88
2023-03-10T13:53:42.754Z,3.03
2023-03-10T13:56:17.873Z,3.35
2023-03-10T13:58:45.245Z,2.97
2023-03-10T14:01:26.271Z,3.50
2023-03-10T14:04:02.327Z,4.07
2023-03-10T14:06:30.429Z,4.38
2023-03-10T14:08:57.039Z,3.72
2023-03-10T14:11:35.688Z,3.47
2023-03-10T14:14:05.071Z,3.80
2023-03-10T14:16:45.611Z,3.13
2023-03-10T14:19:12.071Z,3.40
2023-03-10T14:21:52.279Z,3.55
2023-03-10T14:24:27.684Z,3.83
2023-03-10T14:26:55.340Z,3.50
2023-03-10T14:29:27.667Z,4.72
2023-03-10T14:31:54.103Z,3.40
2023-03-10T14:34:20.588Z,4.30
2023-03-10T14:36:47.014Z,3.17
2023-03-10T14:39:13.455Z,3.45
2023-03-10T14:41:39.894Z,4.20
2023-03-10T14:44:06.417Z,5.00
2023-03-10T14:46:35.107Z,5.55
2023-03-10T14:49:06.679Z,6.57
2023-03-10T14:51:36.686Z,4.05
2023-03-10T14:54:04.072Z,6.10
2023-03-10T14:56:31.564Z,7.28
2023-03-10T14:59:02.000Z,5.93
2023-03-10T15:01:28.581Z,5.15
2023-03-10T15:03:55.035Z,5.47
2023-03-10T15:06:21.589Z,4.07
2023-03-10T15:08:48.532Z,4.07
2023-03-10T15:11:17.430Z,4.43
2023-03-10T15:13:47.835Z,3.83
2023-03-10T15:16:14.701Z,3.83
2023-03-10T15:18:41.233Z,4.35
2023-03-10T15:21:08.880Z,5.07
2023-03-10T15:23:35.328Z,4.32
2023-03-10T15:26:09.409Z,4.15
2023-03-10T15:28:37.392Z,4.15
2023-03-10T15:31:04.311Z,4.53
2023-03-10T15:33:30.905Z,3.35
2023-03-10T15:35:57.471Z,5.13
2023-03-10T15:38:23.927Z,4.28
2023-03-10T15:40:50.437Z,5.15
2023-03-10T15:43:16.864Z,5.25
2023-03-10T15:45:46.791Z,5.95
2023-03-10T15:48:13.262Z,4.23
2023-03-10T15:50:46.762Z,4.00
2023-03-10T15:53:13.538Z,3.93
2023-03-10T15:55:41.391Z,4.20
2023-03-10T15:58:09.482Z,4.70
2023-03-10T16:00:35.974Z,4.27
2023-03-10T16:03:02.788Z,5.30
2023-03-10T16:05:29.428Z,6.40
2023-03-10T16:07:56.005Z,6.07
2023-03-10T16:10:22.448Z,6.60
2023-03-10T16:12:48.879Z,6.33
2023-03-10T16:15:18.131Z,7.07
2023-03-10T16:17:44.851Z,6.87
2023-03-10T16:20:12.681Z,7.37
2023-03-10T16:22:40.716Z,5.63
2023-03-10T16:25:18.049Z,4.63
2023-03-10T16:27:45.546Z,5.47
2023-03-10T16:30:13.427Z,6.33
2023-03-10T16:32:39.903Z,5.67
2023-03-10T16:35:07.080Z,6.87
2023-03-10T16:37:33.473Z,6.07
2023-03-10T16:39:59.899Z,6.17
2023-03-10T16:42:26.368Z,5.87
2023-03-10T16:44:56.598Z,6.77
2023-03-10T16:47:23.591Z,7.00
2023-03-10T16:49:50.043Z,7.03
2023-03-10T16:52:16.470Z,7.43
2023-03-10T16:54:44.855Z,8.10
2023-03-10T16:57:12.166Z,7.63
2023-03-10T16:59:39.936Z,8.53
2023-03-10T17:02:06.943Z,10.63
2023-03-10T17:04:33.359Z,9.03
2023-03-10T17:06:59.763Z,8.93
2023-03-10T17:09:26.173Z,10.83
2023-03-10T17:11:55.092Z,11.73
2023-03-10T17:14:21.957Z,14.17
2023-03-10T17:16:48.814Z,13.20
2023-03-10T17:19:18.415Z,11.23
2023-03-10T17:21:49.415Z,9.00
2023-03-10T17:24:17.174Z,10.63
2023-03-10T17:26:44.476Z,8.97
2023-03-10T17:29:11.156Z,7.60
2023-03-10T17:31:38.111Z,7.30
2023-03-10T17:34:07.492Z,8.20
2023-03-10T17:36:34.481Z,7.33
2023-03-10T17:39:01.867Z,8.03
2023-03-10T17:41:29.958Z,6.20
2023-03-10T17:43:56.445Z,8.77
2023-03-10T17:46:27.860Z,7.50
2023-03-10T17:48:55.063Z,7.60
2023-03-10T17:51:26.321Z,8.33
2023-03-10T17:53:53.065Z,7.43
2023-03-10T17:56:19.777Z,8.17
2023-03-10T17:58:46.246Z,8.40
2023-03-10T18:01:15.301Z,7.93
2023-03-10T18:03:41.857Z,8.33
2023-03-10T18:06:16.521Z,8.47
2023-03-10T18:08:43.144Z,7.07
2023-03-10T18:11:10.371Z,7.57
2023-03-10T18:13:37.137Z,7.73
2023-03-10T18:16:04.212Z,10.10
2023-03-10T18:18:30.766Z,6.80
2023-03-10T18:20:57.257Z,8.73
2023-03-10T18:23:23.959Z,9.40
2023-03-10T18:25:50.909Z,7.53
2023-03-10T18:28:19.222Z,8.97
2023-03-10T18:30:50.040Z,8.23
2023-03-10T18:33:16.674Z,9.37
2023-03-10T18:35:45.537Z,7.83
2023-03-10T18:38:13.164Z,7.43
2023-03-10T18:40:40.053Z,7.90
2023-03-10T18:43:06.502Z,10.33
2023-03-10T18:45:33.277Z,8.10
2023-03-10T18:47:59.734Z,9.63
2023-03-10T18:50:26.161Z,8.73
2023-03-10T18:52:52.585Z,7.87
2023-03-10T18:55:19.105Z,9.27
2023-03-10T18:57:45.588Z,9.77
2023-03-10T19:00:14.726Z,10.83
2023-03-10T19:02:42.376Z,9.23
2023-03-10T19:05:15.768Z,10.70
2023-03-10T19:07:42.258Z,10.33
2023-03-10T19:10:12.377Z,10.60
2023-03-10T19:12:39.383Z,11.07
2023-03-10T19:15:09.010Z,11.17
2023-03-10T19:17:37.539Z,14.10
2023-03-10T19:20:05.646Z,11.17
2023-03-10T19:22:34.162Z,12.57
2023-03-10T19:25:01.706Z,10.00
2023-03-10T19:27:28.152Z,9.57
2023-03-10T19:29:54.673Z,12.93
2023-03-10T19:32:21.572Z,14.67
2023-03-10T19:34:48.144Z,15.87
2023-03-10T19:37:14.654Z,12.13
2023-03-10T19:39:41.181Z,14.33
2023-03-10T19:42:07.647Z,12.70
2023-03-10T19:44:34.113Z,12.07
2023-03-10T19:47:00.716Z,11.50
2023-03-10T19:49:27.207Z,11.53
2023-03-10T19:51:53.629Z,10.30
2023-03-10T19:54:20.086Z,9.90
2023-03-10T19:56:46.488Z,8.50
2023-03-10T19:59:12.932Z,8.30
2023-03-10T20:01:40.348Z,9.60
2023-03-10T20:04:06.938Z,8.10
2023-03-10T20:06:33.408Z,8.33
2023-03-10T20:08:59.830Z,8.17
2023-03-10T20:11:26.286Z,9.63
2023-03-10T20:13:54.220Z,7.50
2023-03-10T20:16:23.825Z,9.90
2023-03-10T20:18:50.642Z,10.33
2023-03-10T20:21:17.044Z,8.97
2023-03-10T20:23:47.478Z,9.97
2023-03-10T20:26:15.531Z,10.43
2023-03-10T20:28:42.032Z,10.13
2023-03-10T20:31:08.857Z,9.53
2023-03-10T20:33:36.548Z,10.23
2023-03-10T20:36:02.993Z,11.93
2023-03-10T20:38:29.434Z,9.23
2023-03-10T20:40:55.856Z,9.83
2023-03-10T20:43:22.362Z,10.67
2023-03-10T20:45:50.836Z,10.03
2023-03-10T20:48:17.293Z,8.90
2023-03-10T20:50:43.692Z,9.37
2023-03-10T20:53:10.621Z,9.87
2023-03-10T20:55:37.654Z,8.87
2023-03-10T20:58:04.273Z,9.27
2023-03-10T21:00:30.719Z,9.20
2023-03-10T21:02:57.733Z,8.53
2023-03-10T21:05:26.129Z,9.43
2023-03-10T21:07:52.622Z,9.80
2023-03-10T21:10:19.596Z,7.47
2023-03-10T21:12:46.017Z,8.27
2023-03-10T21:15:15.168Z,9.23
2023-03-10T21:17:41.724Z,8.73
2023-03-10T21:20:08.952Z,8.00
2023-03-10T21:22:36.507Z,8.07
2023-03-10T21:25:06.682Z,8.30
2023-03-10T21:27:35.128Z,8.77
2023-03-10T21:30:03.769Z,8.30
2023-03-10T21:32:30.264Z,6.83
2023-03-10T21:34:56.718Z,6.13
2023-03-10T21:37:23.143Z,5.80
2023-03-10T21:39:49.585Z,5.73
2023-03-10T21:42:16.071Z,5.53
2023-03-10T21:44:42.500Z,5.50
2023-03-10T21:47:08.908Z,6.90
2023-03-10T21:49:35.324Z,5.87
2023-03-10T21:52:03.295Z,6.37
2023-03-10T21:54:29.981Z,5.50
2023-03-10T21:56:59.273Z,5.93
2023-03-10T21:59:25.729Z,4.97
2023-03-10T22:01:52.287Z,5.20
2023-03-10T22:04:18.860Z,4.73
2023-03-10T22:06:45.286Z,5.67
2023-03-10T22:09:11.709Z,4.67
2023-03-10T22:11:38.135Z,3.53
2023-03-10T22:14:04.687Z,4.17
2023-03-10T22:16:31.134Z,3.70
2023-03-10T22:18:57.567Z,2.97
2023-03-10T22:21:23.991Z,3.30
2023-03-10T22:23:50.399Z,3.70
2023-03-10T22:26:16.817Z,3.57
2023-03-10T22:28:43.226Z,3.50
2023-03-10T22:31:10.606Z,3.50
2023-03-10T22:33:37.212Z,2.93
2023-03-10T22:36:08.832Z,5.10
2023-03-10T22:38:35.284Z,2.40
2023-03-10T22:41:01.872Z,2.80
2023-03-10T22:43:28.445Z,2.90
2023-03-10T22:45:59.765Z,3.23
2023-03-10T22:48:26.191Z,3.07
2023-03-10T22:50:52.642Z,3.37
2023-03-10T22:53:20.923Z,2.43
2023-03-10T22:55:48.394Z,2.83
2023-03-10T22:58:16.162Z,2.60
2023-03-10T23:00:42.723Z,2.50
2023-03-10T23:03:11.563Z,2.63
2023-03-10T23:05:38.407Z,2.67
2023-03-10T23:08:05.251Z,2.67
2023-03-10T23:10:33.167Z,2.53
2023-03-10T23:13:02.114Z,2.43
2023-03-10T23:15:31.480Z,2.87
2023-03-10T23:17:57.935Z,2.20
2023-03-10T23:20:27.384Z,2.60
2023-03-10T23:22:55.591Z,2.00
2023-03-10T23:25:25.023Z,2.17
2023-03-10T23:27:51.508Z,2.30
2023-03-10T23:30:17.977Z,2.60
2023-03-10T23:32:45.560Z,2.17
2023-03-10T23:35:14.286Z,2.10
2023-03-10T23:37:40.702Z,2.27
2023-03-10T23:40:11.589Z,3.10
2023-03-10T23:42:38.728Z,3.13
2023-03-10T23:45:06.893Z,3.40
2023-03-10T23:47:34.562Z,3.63
2023-03-10T23:50:01.606Z,4.53
2023-03-10T23:52:28.054Z,5.07
2023-03-10T23:54:54.842Z,6.30
2023-03-10T23:57:21.237Z,4.47
2023-03-10T23:59:48.465Z,5.80
